Terminal Aerodrome Forecast
Issued by NWS

Home | Current Version | Previous Version | Text Only | Print | Product List | Glossary On
Versions: 1 2 3 4 5 6 7 8 9 10 11 12 13 14 15 16 17 18 19 20 21 22 23 24 25 26 27 28 29 30 31 32
944
FTAK31 PANC 101735
TAFADU
TAF
PADU 101735Z 1018/1118 02010G24KT P6SM -RA SCT007 OVC015
      TEMPO 1018/1022 3SM -RA OVC008
     FM110600 04008KT 6SM -SHRA BKN007
     FM111200 05008KT 5SM BR VCSH OVC015=

USA.gov is the U.S. government's official web portal to all federal, state and local government web resources and services.